createdAt,value
2022-10-06T00:00:49.885Z,1.20
2022-10-06T00:03:17.367Z,1.35
2022-10-06T00:05:44.910Z,1.25
2022-10-06T00:08:12.050Z,0.93
2022-10-06T00:10:40.369Z,1.05
2022-10-06T00:13:08.214Z,1.25
2022-10-06T00:15:35.561Z,1.38
2022-10-06T00:18:03.165Z,1.35
2022-10-06T00:20:30.382Z,1.50
2022-10-06T00:22:57.565Z,1.20
2022-10-06T00:25:26.492Z,1.40
2022-10-06T00:27:54.725Z,1.77
2022-10-06T00:30:23.528Z,1.10
2022-10-06T00:32:57.493Z,1.42
2022-10-06T00:35:25.737Z,1.92
2022-10-06T00:37:53.170Z,1.02
2022-10-06T00:40:21.037Z,1.20
2022-10-06T00:43:05.275Z,1.00
2022-10-06T00:45:36.062Z,1.10
2022-10-06T00:48:08.538Z,1.10
2022-10-06T00:50:36.439Z,1.38
2022-10-06T00:53:03.911Z,1.27
2022-10-06T00:55:31.062Z,1.70
2022-10-06T00:57:59.329Z,1.70
2022-10-06T01:00:27.007Z,1.50
2022-10-06T01:03:01.347Z,1.92
2022-10-06T01:05:33.563Z,1.10
2022-10-06T01:08:00.887Z,1.27
2022-10-06T01:10:28.480Z,1.25
2022-10-06T01:12:57.130Z,1.08
2022-10-06T01:15:25.453Z,1.52
2022-10-06T01:17:55.500Z,1.30
2022-10-06T01:20:23.140Z,1.13
2022-10-06T01:22:54.008Z,1.98
2022-10-06T01:25:21.421Z,1.45
2022-10-06T01:27:53.545Z,1.42
2022-10-06T01:30:28.258Z,1.35
2022-10-06T01:32:55.717Z,1.35
2022-10-06T01:35:22.993Z,1.20
2022-10-06T01:37:50.164Z,1.15
2022-10-06T01:40:17.466Z,1.95
2022-10-06T01:42:44.614Z,1.58
2022-10-06T01:45:11.867Z,1.80
2022-10-06T01:47:39.282Z,1.65
2022-10-06T01:50:08.102Z,1.15
2022-10-06T01:52:36.102Z,1.30
2022-10-06T01:55:03.453Z,1.30
2022-10-06T01:57:30.602Z,1.60
2022-10-06T01:59:57.913Z,1.48
2022-10-06T02:02:25.054Z,1.77
2022-10-06T02:04:52.416Z,1.40
2022-10-06T02:07:19.619Z,2.30
2022-10-06T02:09:46.739Z,1.10
2022-10-06T02:12:13.936Z,1.52
2022-10-06T02:14:41.103Z,1.77
2022-10-06T02:17:08.652Z,1.40
2022-10-06T02:19:35.833Z,2.13
2022-10-06T02:22:03.081Z,1.60
2022-10-06T02:24:30.370Z,1.65
2022-10-06T02:26:57.528Z,4.15
2022-10-06T02:29:24.966Z,2.45
2022-10-06T02:31:52.560Z,1.65
2022-10-06T02:34:19.690Z,2.55
2022-10-06T02:36:46.966Z,1.15
2022-10-06T02:39:14.091Z,2.08
2022-10-06T02:41:41.233Z,2.17
2022-10-06T02:44:08.426Z,1.85
2022-10-06T02:46:35.580Z,2.00
2022-10-06T02:49:02.733Z,2.13
2022-10-06T02:51:32.771Z,2.08
2022-10-06T02:53:59.959Z,2.10
2022-10-06T02:56:27.457Z,2.17
2022-10-06T02:58:55.584Z,2.53
2022-10-06T03:01:24.445Z,2.35
2022-10-06T03:03:51.787Z,1.70
2022-10-06T03:06:29.892Z,2.00
2022-10-06T03:09:00.084Z,2.25
2022-10-06T03:11:31.463Z,2.08
2022-10-06T03:13:58.668Z,1.92
2022-10-06T03:16:27.521Z,1.83
2022-10-06T03:18:55.797Z,1.55
2022-10-06T03:21:24.421Z,1.83
2022-10-06T03:23:53.366Z,1.85
2022-10-06T03:26:21.800Z,3.15
2022-10-06T03:28:49.204Z,1.92
2022-10-06T03:31:17.980Z,1.77
2022-10-06T03:33:45.327Z,1.48
2022-10-06T03:36:14.429Z,1.65
2022-10-06T03:38:41.784Z,1.20
2022-10-06T03:41:19.349Z,2.03
2022-10-06T03:43:47.452Z,1.63
2022-10-06T03:46:16.480Z,2.20
2022-10-06T03:48:43.699Z,1.60
2022-10-06T03:51:15.111Z,2.30
2022-10-06T03:53:44.629Z,1.75
2022-10-06T03:56:30.674Z,1.65
2022-10-06T03:58:59.792Z,1.70
2022-10-06T04:01:27.020Z,1.48
2022-10-06T04:03:58.080Z,2.30
2022-10-06T04:06:25.820Z,2.60
2022-10-06T04:08:53.315Z,1.92
2022-10-06T04:11:21.462Z,2.22
2022-10-06T04:13:49.300Z,1.77
2022-10-06T04:16:16.525Z,1.85
2022-10-06T04:18:44.400Z,1.77
2022-10-06T04:21:12.320Z,2.03
2022-10-06T04:23:39.528Z,1.95
2022-10-06T04:26:09.833Z,1.52
2022-10-06T04:28:38.246Z,1.40
2022-10-06T04:31:07.675Z,1.80
2022-10-06T04:33:35.020Z,1.55
2022-10-06T04:36:04.684Z,2.22
2022-10-06T04:38:35.229Z,1.75
2022-10-06T04:41:15.980Z,2.50
2022-10-06T04:43:43.516Z,1.90
2022-10-06T04:46:37.735Z,1.83
2022-10-06T04:48:58.267Z,2.33
2022-10-06T04:51:26.519Z,2.22
2022-10-06T04:53:54.024Z,1.60
2022-10-06T04:56:21.171Z,1.90
2022-10-06T04:58:49.550Z,2.03
2022-10-06T05:01:27.820Z,1.80
2022-10-06T05:03:56.324Z,2.40
2022-10-06T05:06:24.948Z,2.13
2022-10-06T05:08:56.348Z,1.35
2022-10-06T05:11:25.964Z,1.95
2022-10-06T05:13:54.868Z,1.90
2022-10-06T05:16:22.874Z,2.22
2022-10-06T05:18:50.306Z,1.73
2022-10-06T05:21:18.789Z,1.98
2022-10-06T05:23:46.595Z,1.95
2022-10-06T05:26:16.931Z,2.30
2022-10-06T05:28:44.790Z,2.58
2022-10-06T05:31:13.754Z,1.83
2022-10-06T05:33:41.818Z,2.80
2022-10-06T05:36:13.988Z,2.25
2022-10-06T05:38:41.649Z,2.22
2022-10-06T05:41:12.024Z,2.22
2022-10-06T05:43:39.980Z,2.55
2022-10-06T05:46:08.571Z,2.13
2022-10-06T05:48:36.039Z,2.00
2022-10-06T05:51:07.794Z,2.03
2022-10-06T05:53:35.806Z,2.25
2022-10-06T05:56:13.473Z,2.03
2022-10-06T05:58:41.569Z,1.83
2022-10-06T06:01:08.713Z,1.52
2022-10-06T06:03:36.048Z,1.63
2022-10-06T06:06:03.353Z,2.17
2022-10-06T06:08:30.946Z,2.28
2022-10-06T06:11:05.715Z,2.05
2022-10-06T06:13:32.865Z,2.20
2022-10-06T06:16:00.430Z,2.53
2022-10-06T06:18:28.617Z,2.58
2022-10-06T06:20:57.350Z,2.15
2022-10-06T06:23:24.585Z,1.92
2022-10-06T06:26:02.112Z,1.85
2022-10-06T06:28:30.733Z,1.75
2022-10-06T06:31:02.770Z,1.80
2022-10-06T06:33:30.788Z,3.30
2022-10-06T06:36:01.188Z,2.00
2022-10-06T06:38:28.852Z,2.20
2022-10-06T06:40:56.323Z,2.20
2022-10-06T06:43:23.551Z,2.95
2022-10-06T06:45:50.725Z,2.05
2022-10-06T06:48:17.909Z,2.03
2022-10-06T06:50:45.837Z,1.83
2022-10-06T06:53:16.266Z,2.17
2022-10-06T06:55:51.061Z,1.83
2022-10-06T06:58:19.487Z,1.83
2022-10-06T07:00:48.342Z,2.10
2022-10-06T07:03:32.855Z,3.10
2022-10-06T07:06:13.493Z,2.08
2022-10-06T07:08:44.575Z,1.63
2022-10-06T07:11:16.511Z,1.85
2022-10-06T07:13:44.083Z,2.60
2022-10-06T07:16:30.866Z,2.38
2022-10-06T07:19:20.103Z,2.42
2022-10-06T07:22:12.356Z,2.17
2022-10-06T07:24:58.578Z,2.28
2022-10-06T07:27:26.182Z,2.35
2022-10-06T07:29:55.160Z,2.85
2022-10-06T07:32:23.462Z,2.40
2022-10-06T07:34:51.233Z,2.00
2022-10-06T07:37:19.311Z,1.75
2022-10-06T07:39:49.556Z,2.50
2022-10-06T07:42:17.665Z,2.00
2022-10-06T07:45:05.438Z,2.40
2022-10-06T07:47:33.097Z,1.80
2022-10-06T07:50:00.333Z,2.40
2022-10-06T07:52:30.402Z,2.00
2022-10-06T07:54:58.522Z,2.55
2022-10-06T07:57:35.165Z,2.50
2022-10-06T08:00:05.244Z,2.40
2022-10-06T08:02:35.579Z,1.67
2022-10-06T08:05:03.448Z,2.08
2022-10-06T08:07:30.589Z,2.67
2022-10-06T08:09:57.758Z,2.25
2022-10-06T08:12:33.833Z,2.65
2022-10-06T08:15:06.881Z,1.60
2022-10-06T08:17:36.061Z,2.65
2022-10-06T08:20:04.200Z,1.90
2022-10-06T08:22:31.389Z,2.70
2022-10-06T08:25:06.213Z,1.77
2022-10-06T08:27:35.100Z,2.38
2022-10-06T08:30:02.410Z,1.85
2022-10-06T08:32:29.665Z,2.50
2022-10-06T08:34:57.416Z,1.80
2022-10-06T08:37:26.851Z,1.70
2022-10-06T08:39:54.658Z,1.90
2022-10-06T08:42:39.406Z,2.35
2022-10-06T08:45:11.305Z,2.10
2022-10-06T08:47:38.676Z,1.90
2022-10-06T08:50:09.773Z,2.25
2022-10-06T08:52:49.159Z,2.65
2022-10-06T08:55:25.524Z,1.80
2022-10-06T09:00:43.674Z,2.65
2022-10-06T09:03:19.648Z,3.08
2022-10-06T09:05:48.229Z,2.03
2022-10-06T09:08:25.671Z,1.83
2022-10-06T09:11:11.512Z,1.80
2022-10-06T09:16:16.051Z,2.00
2022-10-06T09:19:07.297Z,2.10
2022-10-06T09:21:40.816Z,2.13
2022-10-06T09:24:16.041Z,2.65
2022-10-06T09:26:45.105Z,1.83
2022-10-06T09:29:12.941Z,1.88
2022-10-06T09:31:42.284Z,2.33
2022-10-06T09:34:09.476Z,2.38
2022-10-06T09:37:01.633Z,1.83
2022-10-06T09:39:36.549Z,1.73
2022-10-06T09:42:06.834Z,2.00
2022-10-06T09:44:42.194Z,2.13
2022-10-06T09:49:36.433Z,1.75
2022-10-06T09:52:12.101Z,2.20
2022-10-06T09:54:41.882Z,2.20
2022-10-06T09:57:21.084Z,1.95
2022-10-06T09:59:48.921Z,1.73
2022-10-06T10:02:37.206Z,2.00
2022-10-06T10:05:23.529Z,2.08
2022-10-06T10:08:01.598Z,2.10
2022-10-06T10:10:28.764Z,1.98
2022-10-06T10:12:57.566Z,2.53
2022-10-06T10:15:33.260Z,2.10
2022-10-06T10:18:04.385Z,2.33
2022-10-06T10:20:34.473Z,2.38
2022-10-06T10:23:03.668Z,2.10
2022-10-06T10:25:53.964Z,2.25
2022-10-06T10:28:21.164Z,2.25
2022-10-06T10:30:54.151Z,2.10
2022-10-06T10:33:36.708Z,2.47
2022-10-06T10:36:05.547Z,2.55
2022-10-06T10:38:32.781Z,2.40
2022-10-06T10:41:04.015Z,2.95
2022-10-06T10:43:31.650Z,2.60
2022-10-06T10:46:09.161Z,2.50
2022-10-06T10:48:48.448Z,2.40
2022-10-06T10:51:24.829Z,2.13
2022-10-06T10:54:01.477Z,1.58
2022-10-06T10:56:29.412Z,1.80
2022-10-06T10:59:02.026Z,2.38
2022-10-06T11:01:38.477Z,1.70
2022-10-06T11:04:10.244Z,2.08
2022-10-06T11:06:40.493Z,1.80
2022-10-06T11:09:18.776Z,1.52
2022-10-06T11:12:04.218Z,1.73
2022-10-06T11:14:41.309Z,1.83
2022-10-06T11:17:23.055Z,1.85
2022-10-06T11:20:19.197Z,1.40
2022-10-06T11:25:23.321Z,1.60
2022-10-06T11:27:55.853Z,1.58
2022-10-06T11:30:26.960Z,1.45
2022-10-06T11:32:54.181Z,1.50
2022-10-06T11:35:23.047Z,1.85
2022-10-06T11:37:53.753Z,1.58
2022-10-06T11:40:27.654Z,1.80
2022-10-06T11:43:06.331Z,1.73
2022-10-06T11:45:47.934Z,1.50
2022-10-06T11:48:18.318Z,1.40
2022-10-06T11:50:49.157Z,1.73
2022-10-06T11:53:42.798Z,1.98
2022-10-06T11:56:19.096Z,1.70
2022-10-06T11:58:52.149Z,1.40
2022-10-06T12:01:31.394Z,1.40
2022-10-06T12:04:05.366Z,1.55
2022-10-06T12:06:44.932Z,1.42
2022-10-06T12:09:28.523Z,1.52
2022-10-06T12:11:57.029Z,1.83
2022-10-06T12:17:27.830Z,1.42
2022-10-06T12:20:13.226Z,1.40
2022-10-06T12:22:45.237Z,1.65
2022-10-06T12:25:18.524Z,2.03
2022-10-06T12:27:45.981Z,1.45
2022-10-06T12:30:28.367Z,1.75
2022-10-06T12:32:56.634Z,1.23
2022-10-06T12:35:26.452Z,1.90
2022-10-06T12:37:55.340Z,1.55
2022-10-06T12:40:42.753Z,1.52
2022-10-06T12:43:19.005Z,1.40
2022-10-06T12:45:55.492Z,1.48
2022-10-06T12:48:26.896Z,2.35
2022-10-06T12:50:58.439Z,1.40
2022-10-06T12:53:32.506Z,1.40
2022-10-06T12:56:03.122Z,1.10
2022-10-06T12:58:32.341Z,1.23
2022-10-06T13:01:04.934Z,1.40
2022-10-06T13:03:32.257Z,1.38
2022-10-06T13:06:03.687Z,1.80
2022-10-06T13:08:31.995Z,1.27
2022-10-06T13:11:17.647Z,1.23
2022-10-06T13:16:12.538Z,1.23
2022-10-06T13:18:39.737Z,1.15
2022-10-06T13:21:13.055Z,1.17
2022-10-06T13:23:40.615Z,1.02
2022-10-06T13:26:08.643Z,1.38
2022-10-06T13:28:42.019Z,1.63
2022-10-06T13:31:15.492Z,1.30
2022-10-06T13:33:43.776Z,1.10
2022-10-06T13:36:12.432Z,1.02
2022-10-06T13:38:41.207Z,1.13
2022-10-06T13:41:14.418Z,1.40
2022-10-06T13:43:43.840Z,1.10
2022-10-06T13:46:13.214Z,1.02
2022-10-06T13:48:48.479Z,1.27
2022-10-06T13:53:46.053Z,1.00
2022-10-06T13:56:33.719Z,1.42
2022-10-06T13:59:16.397Z,1.17
2022-10-06T14:01:43.677Z,1.45
2022-10-06T14:04:18.215Z,1.10
2022-10-06T14:06:46.977Z,1.33
2022-10-06T14:09:14.241Z,1.58
2022-10-06T14:11:43.453Z,1.00
2022-10-06T14:14:15.549Z,1.20
2022-10-06T14:16:48.173Z,1.45
2022-10-06T14:19:30.869Z,0.88
2022-10-06T14:21:58.056Z,1.15
2022-10-06T14:24:28.235Z,1.13
2022-10-06T14:27:00.570Z,1.08
2022-10-06T14:29:27.755Z,0.95
2022-10-06T14:31:55.071Z,1.15
2022-10-06T14:34:22.691Z,1.27
2022-10-06T14:36:51.888Z,1.48
2022-10-06T14:39:19.464Z,1.45
2022-10-06T14:41:46.668Z,1.60
2022-10-06T14:44:15.620Z,1.33
2022-10-06T14:46:44.440Z,1.23
2022-10-06T14:49:13.385Z,1.70
2022-10-06T14:51:41.253Z,1.30
2022-10-06T14:54:10.280Z,1.15
2022-10-06T14:56:39.071Z,1.20
2022-10-06T14:59:07.705Z,1.42
2022-10-06T15:01:35.886Z,1.27
2022-10-06T15:04:05.157Z,1.33
2022-10-06T15:06:50.741Z,1.20
2022-10-06T15:09:17.888Z,1.52
2022-10-06T15:11:45.372Z,1.15
2022-10-06T15:14:12.637Z,1.35
2022-10-06T15:16:42.361Z,1.25
2022-10-06T15:19:11.022Z,1.30
2022-10-06T15:21:41.809Z,1.10
2022-10-06T15:24:11.747Z,1.27
2022-10-06T15:26:57.468Z,1.35
2022-10-06T15:29:24.652Z,1.20
2022-10-06T15:31:53.159Z,1.38
2022-10-06T15:34:23.553Z,1.50
2022-10-06T15:36:52.325Z,1.65
2022-10-06T15:39:20.621Z,1.40
2022-10-06T15:41:48.265Z,1.08
2022-10-06T15:44:16.029Z,1.30
2022-10-06T15:46:44.420Z,1.10
2022-10-06T15:49:13.386Z,1.58
2022-10-06T15:51:45.240Z,1.60
2022-10-06T15:54:12.920Z,1.50
2022-10-06T15:56:40.325Z,1.38
2022-10-06T15:59:07.818Z,1.38
2022-10-06T16:01:38.901Z,1.33
2022-10-06T16:04:13.778Z,1.83
2022-10-06T16:06:49.484Z,1.60
2022-10-06T16:09:18.357Z,2.03
2022-10-06T16:11:47.006Z,1.63
2022-10-06T16:14:14.523Z,1.35
2022-10-06T16:16:43.803Z,1.92
2022-10-06T16:19:11.434Z,1.38
2022-10-06T16:21:39.133Z,1.75
2022-10-06T16:24:06.386Z,1.85
2022-10-06T16:26:33.740Z,1.50
2022-10-06T16:29:01.116Z,1.55
2022-10-06T16:31:28.568Z,1.90
2022-10-06T16:33:55.798Z,1.90
2022-10-06T16:36:23.100Z,1.55
2022-10-06T16:38:51.411Z,1.50
2022-10-06T16:41:18.686Z,1.52
2022-10-06T16:43:46.452Z,2.03
2022-10-06T16:46:32.794Z,1.92
2022-10-06T16:49:00.820Z,1.35
2022-10-06T16:51:29.261Z,1.70
2022-10-06T16:53:58.001Z,1.42
2022-10-06T16:56:26.649Z,1.80
2022-10-06T16:58:55.293Z,1.52
2022-10-06T17:01:26.720Z,1.67
2022-10-06T17:04:02.893Z,2.00
2022-10-06T17:06:30.812Z,1.80
2022-10-06T17:08:58.209Z,1.58
2022-10-06T17:11:25.858Z,1.48
2022-10-06T17:13:54.416Z,2.03
2022-10-06T17:16:29.252Z,1.70
2022-10-06T17:18:57.398Z,1.75
2022-10-06T17:21:44.961Z,1.92
2022-10-06T17:24:12.064Z,1.70
2022-10-06T17:26:40.463Z,2.53
2022-10-06T17:29:09.884Z,2.78
2022-10-06T17:31:38.247Z,2.30
2022-10-06T17:34:08.458Z,2.10
2022-10-06T17:36:37.994Z,2.15
2022-10-06T17:39:06.202Z,1.65
2022-10-06T17:41:34.572Z,1.88
2022-10-06T17:44:03.506Z,2.75
2022-10-06T17:46:32.025Z,2.20
2022-10-06T17:49:01.755Z,2.15
2022-10-06T17:51:29.063Z,1.50
2022-10-06T17:53:56.992Z,1.75
2022-10-06T17:56:25.935Z,1.90
2022-10-06T17:58:54.664Z,2.13
2022-10-06T18:01:22.852Z,2.17
2022-10-06T18:03:52.803Z,3.03
2022-10-06T18:06:20.558Z,2.40
2022-10-06T18:08:48.633Z,2.67
2022-10-06T18:11:36.268Z,2.42
2022-10-06T18:14:07.760Z,2.45
2022-10-06T18:16:39.586Z,2.55
2022-10-06T18:19:17.349Z,2.85
2022-10-06T18:21:45.345Z,2.60
2022-10-06T18:24:20.933Z,2.33
2022-10-06T18:26:52.144Z,3.03
2022-10-06T18:29:20.211Z,2.40
2022-10-06T18:31:49.690Z,4.03
2022-10-06T18:37:04.522Z,2.33
2022-10-06T18:39:33.393Z,2.67
2022-10-06T18:42:03.684Z,2.85
2022-10-06T18:44:49.641Z,2.40
2022-10-06T18:47:35.831Z,2.53
2022-10-06T18:50:02.969Z,2.25
2022-10-06T18:52:30.160Z,2.60
2022-10-06T18:54:57.285Z,2.28
2022-10-06T18:57:27.688Z,2.65
2022-10-06T18:59:55.339Z,2.58
2022-10-06T19:02:22.732Z,2.97
2022-10-06T19:04:49.954Z,2.53
2022-10-06T19:07:17.105Z,2.38
2022-10-06T19:09:46.898Z,2.22
2022-10-06T19:12:14.773Z,1.80
2022-10-06T19:14:47.550Z,2.05
2022-10-06T19:17:15.704Z,2.33
2022-10-06T19:19:45.332Z,2.28
2022-10-06T19:22:13.881Z,2.67
2022-10-06T19:24:45.050Z,2.33
2022-10-06T19:27:15.139Z,2.05
2022-10-06T19:29:45.915Z,2.25
2022-10-06T19:32:17.436Z,2.00
2022-10-06T19:34:45.229Z,2.67
2022-10-06T19:37:12.600Z,2.78
2022-10-06T19:39:42.851Z,2.25
2022-10-06T19:42:30.120Z,2.33
2022-10-06T19:44:57.336Z,2.50
2022-10-06T19:47:24.598Z,1.92
2022-10-06T19:49:53.578Z,2.60
2022-10-06T19:52:22.397Z,2.08
2022-10-06T19:54:49.645Z,2.10
2022-10-06T19:57:16.825Z,2.35
2022-10-06T19:59:43.987Z,2.30
2022-10-06T20:02:11.925Z,3.00
2022-10-06T20:04:39.975Z,2.92
2022-10-06T20:07:07.230Z,2.20
2022-10-06T20:09:34.624Z,2.35
2022-10-06T20:12:01.870Z,2.65
2022-10-06T20:14:29.544Z,2.47
2022-10-06T20:16:57.482Z,2.65
2022-10-06T20:19:25.568Z,2.78
2022-10-06T20:21:53.165Z,2.50
2022-10-06T20:24:24.591Z,2.53
2022-10-06T20:26:52.919Z,2.30
2022-10-06T20:29:21.740Z,2.00
2022-10-06T20:31:50.447Z,2.22
2022-10-06T20:34:19.244Z,2.10
2022-10-06T20:36:49.528Z,2.30
2022-10-06T20:39:41.123Z,1.98
2022-10-06T20:42:13.987Z,2.10
2022-10-06T20:44:42.571Z,2.30
2022-10-06T20:47:10.529Z,1.75
2022-10-06T20:49:38.144Z,2.00
2022-10-06T20:52:06.119Z,2.65
2022-10-06T20:54:37.288Z,1.75
2022-10-06T20:57:06.307Z,2.35
2022-10-06T20:59:35.423Z,1.67
2022-10-06T21:02:03.167Z,1.70
2022-10-06T21:04:30.536Z,2.33
2022-10-06T21:06:57.850Z,2.15
2022-10-06T21:09:25.341Z,2.00
2022-10-06T21:11:53.046Z,1.58
2022-10-06T21:14:20.217Z,1.33
2022-10-06T21:16:48.367Z,2.58
2022-10-06T21:19:17.019Z,1.63
2022-10-06T21:21:45.699Z,1.80
2022-10-06T21:24:13.509Z,2.00
2022-10-06T21:26:42.355Z,1.52
2022-10-06T21:29:12.783Z,2.05
2022-10-06T21:31:40.056Z,2.25
2022-10-06T21:34:07.930Z,2.28
2022-10-06T21:36:35.072Z,2.53
2022-10-06T21:39:04.576Z,2.78
2022-10-06T21:41:35.817Z,1.80
2022-10-06T21:44:09.191Z,2.03
2022-10-06T21:46:36.417Z,2.10
2022-10-06T21:49:04.766Z,2.67
2022-10-06T21:51:32.538Z,2.25
2022-10-06T21:54:00.221Z,2.22
2022-10-06T21:56:28.363Z,2.88
2022-10-06T21:58:56.182Z,1.98
2022-10-06T22:01:24.885Z,2.45
2022-10-06T22:03:53.027Z,2.22
2022-10-06T22:06:21.523Z,2.50
2022-10-06T22:08:49.053Z,2.58
2022-10-06T22:11:23.392Z,2.15
2022-10-06T22:13:51.669Z,2.05
2022-10-06T22:16:20.537Z,2.13
2022-10-06T22:18:48.140Z,2.35
2022-10-06T22:21:16.755Z,1.95
2022-10-06T22:23:44.619Z,2.30
2022-10-06T22:26:12.360Z,2.22
2022-10-06T22:28:39.750Z,2.17
2022-10-06T22:31:08.362Z,2.00
2022-10-06T22:33:36.026Z,2.20
2022-10-06T22:36:03.515Z,2.20
2022-10-06T22:38:30.958Z,2.38
2022-10-06T22:41:01.466Z,1.90
2022-10-06T22:43:28.892Z,2.03
2022-10-06T22:45:56.438Z,2.25
2022-10-06T22:48:23.775Z,2.47
2022-10-06T22:50:51.433Z,2.42
2022-10-06T22:53:22.105Z,2.08
2022-10-06T22:55:49.463Z,2.80
2022-10-06T22:58:16.770Z,2.95
2022-10-06T23:00:44.629Z,3.33
2022-10-06T23:03:12.350Z,2.90
2022-10-06T23:05:40.109Z,2.33
2022-10-06T23:08:08.044Z,2.13
2022-10-06T23:10:35.862Z,2.95
2022-10-06T23:13:03.195Z,2.50
2022-10-06T23:15:30.335Z,2.80
2022-10-06T23:17:57.474Z,2.85
2022-10-06T23:20:24.582Z,2.90
2022-10-06T23:22:51.744Z,2.85
2022-10-06T23:25:20.771Z,2.85
2022-10-06T23:27:49.771Z,2.65
2022-10-06T23:30:16.974Z,2.92
2022-10-06T23:32:44.127Z,3.35
2022-10-06T23:35:11.751Z,3.70
2022-10-06T23:37:39.448Z,3.03
2022-10-06T23:40:06.896Z,3.05
2022-10-06T23:42:34.262Z,3.30
2022-10-06T23:45:01.405Z,3.00
2022-10-06T23:47:28.535Z,3.30
2022-10-06T23:49:55.680Z,3.55
2022-10-06T23:52:22.811Z,3.42
2022-10-06T23:54:50.183Z,3.67
2022-10-06T23:57:17.299Z,3.67
2022-10-06T23:59:44.437Z,3.38
